LELN/LEN METAR and TAF weather

Enter ICAO airport designator
Station Type Date Time Source
LELN METAR 2019/02/20 17:30 UTC NOAA

LELN 201730Z 12003KT 080V150 9999 FEW020 08/02 Q1023


Station Type Date Time Source
LELN Decoded METAR 2019/02/20 17:30 UTC NOAA

Leon / Virgen Del Camino, Spain (LELN) 42-35N 005-39W 914M
Feb 20, 2019 - 12:30 PM EST / 2019.02.20 1730 UTC
Wind: from the ESE (120 degrees) at 3 MPH (3 KT) (direction variable):0
Visibility: greater than 7 mile(s):0
Sky conditions: mostly clear
Temperature: 46 F (8 C)
Dew Point: 35 F (2 C)
Relative Humidity: 65%
Pressure (altimeter): 30.21 in. Hg (1023 hPa)
ob: LELN 201730Z 12003KT 080V150 9999 FEW020 08/02 Q1023
cycle: 17

Station Type Date Time Source
LELN TAF 2018/03/28 12:27 UTC NOAA

TAF LELN 281100Z 2812/2824 27015KT CAVOK
TEMPO 2814/2821 27015G26KT
BECMG 2822/2824 31010KT PROB40
TEMPO 2815/2824 RA BKN030


Example: see airport list